LaGrange, IN (46761)

9:19 PM EDT on April 30, 2017 (GMT -0400)
Adams Lake | | Change Station

Elev 955 ft 41.56 °N, 85.32 °W | Updated 20 seconds ago

Rain
Rain
62.5 °F
Feels Like 62.5 °F
N
3.0
Wind Variable Wind from ESE

Today
High -- | Low -- °F
--% Chance of Precip.
Yesterday
High -- | Low -- °F
Precip. -- in
Pressure 29.71 in
Visibility 10.0 miles
Clouds Mostly Cloudy 3200 ft
Mostly Cloudy 7000 ft
Overcast 10000 ft
Dew Point 61 °F
Humidity 96%
Rainfall 0.62 in
Snow Depth Not available.
6:39 AM 8:39 PM
Waxing Crescent, 28% visible
METAR KIRS 010115Z AUTO 12006KT 10SM -RA BKN032 BKN070 OVC100 17/17 A2971 RMK AO2 T01710168
Pressure 29.71 in
Visibility 10.0 miles
Clouds Mostly Cloudy 3200 ft
Mostly Cloudy 7000 ft
Overcast 10000 ft
Dew Point 61 °F
Humidity 96%
Rainfall 0.62 in
Snow Depth Not available.
6:39 AM 8:39 PM
Waxing Crescent, 28% visible
METAR KIRS 010115Z AUTO 12006KT 10SM -RA BKN032 BKN070 OVC100 17/17 A2971 RMK AO2 T01710168

Get Severe Weather Alerts

Thanks for signing up!

Be on the lookout for a verification email in your inbox.

You'll start receiving the daily forecast at 8 AM.

×

10-Day Weather Forecast

Almanac

Astronomy

Apr. 30, 2017 Rise Set
Actual Time
Civil Twilight
Nautical Twilight
Astronomical Twilight
Moon
Length of Visible Light
Length of Day
Tomorrow will be .
, % of the Moon is Illuminated

Today's Extremes

State Highs State Lows

Community

WunderPhotos

WunderBlog® & News

Nearby

Air Quality

  Air Quality AQ Index Pollutant
Not available.

Snow Depth

Station Depth Elevation

Earthquake Activity

City Distance Mag. Time & Date
Minimum magnitude displayed is 2.5.

Coastal Water Temperatures

Place Temperature

Stations

Nearby Weather Stations

Station Location Temp. Windchill Dew Point Humidity Wind Precip. Elev Updated Type
                   

Watches & Warnings

There are currently no watches in effect.